DLH500 EDDF-SBGL
Flight info
| Callsign | DLH500 |
|---|---|
| Flight time | N/A |
| Altitude | 34000 |
| Route | ULKIG4L ULKIG Y180 DIK UN857 TOLVU/N0492F330 DCT RAPOR DCT GIMER DCT ESTOC UT300 PON UN872 DIDAK DCT AKEMO DCT LAPEX/M086F330 UN470 SEPAL/M086F340 DCT 45N015W 43N020W DCT ANAVA/M086F360 DCT 35N030W 30N033W 25N035W DCT TUTLO/N0504F360 DCT PUBLI/N0494F380 DCT OPRUM DCT NENIP DCT PULOB/N0489F400 DCT SLI UZ4 ERVOB DCT PADAN DCT UTLEV UZ3 NITLU/N0493F380 UZ3 DEJAN/N0480F240 Z32 MAVGU |
| Aircraft | B789/H-SADFGHIJ1J2J3J4J5LOP1P2RWXYZ/LB1D1 |
Departure
| Time | 2026-05-07 20:32 |
|---|---|
| Airport | Frankfurt Main Airport (EDDF) |
Arrival
| Time | N/A |
|---|---|
| Airport | Rio Galeão – Tom Jobim International Airport (SBGL) |
| Time | Latitude | Longitude | Altitude | Speed | Heading |
|---|---|---|---|---|---|
| 2026-05-07 20:01 | 50.04647 | 8.57260 | 361 ft | 0 kts | 298° |
| 2026-05-07 20:15 | 50.04646 | 8.57262 | 361 ft | 2 kts | 298° |
| 2026-05-07 20:16 | 50.04635 | 8.57293 | 363 ft | 2 kts | 295° |
| 2026-05-07 20:16 | 50.04629 | 8.57312 | 367 ft | 4 kts | 297° |
| 2026-05-07 20:16 | 50.04612 | 8.57361 | 367 ft | 4 kts | 298° |
| 2026-05-07 20:16 | 50.04600 | 8.57398 | 369 ft | 4 kts | 288° |
| 2026-05-07 20:17 | 50.04597 | 8.57433 | 365 ft | 4 kts | 255° |
| 2026-05-07 20:17 | 50.04601 | 8.57452 | 366 ft | 4 kts | 249° |
| 2026-05-07 20:17 | 50.04610 | 8.57491 | 366 ft | 4 kts | 250° |
| 2026-05-07 20:17 | 50.04619 | 8.57531 | 364 ft | 4 kts | 250° |
| 2026-05-07 20:18 | 50.04628 | 8.57571 | 363 ft | 4 kts | 251° |
| 2026-05-07 20:18 | 50.04636 | 8.57605 | 366 ft | 1 kts | 251° |
| 2026-05-07 20:18 | 50.04636 | 8.57606 | 363 ft | 0 kts | 251° |
| 2026-05-07 20:20 | 50.04632 | 8.57588 | 363 ft | 1 kts | 250° |
| 2026-05-07 20:21 | 50.04627 | 8.57565 | 365 ft | 6 kts | 250° |
| 2026-05-07 20:21 | 50.04604 | 8.57467 | 363 ft | 12 kts | 250° |
| 2026-05-07 20:21 | 50.04577 | 8.57351 | 366 ft | 11 kts | 250° |
| 2026-05-07 20:21 | 50.04550 | 8.57238 | 366 ft | 12 kts | 250° |
| 2026-05-07 20:22 | 50.04516 | 8.57094 | 366 ft | 15 kts | 250° |
| 2026-05-07 20:22 | 50.04481 | 8.56947 | 368 ft | 13 kts | 249° |
| 2026-05-07 20:22 | 50.04450 | 8.56820 | 370 ft | 14 kts | 250° |
| 2026-05-07 20:22 | 50.04412 | 8.56660 | 369 ft | 18 kts | 250° |
| 2026-05-07 20:23 | 50.04367 | 8.56473 | 365 ft | 18 kts | 249° |
| 2026-05-07 20:23 | 50.04323 | 8.56290 | 366 ft | 18 kts | 250° |
| 2026-05-07 20:23 | 50.04281 | 8.56110 | 365 ft | 17 kts | 250° |
| 2026-05-07 20:23 | 50.04238 | 8.55934 | 362 ft | 18 kts | 249° |
| 2026-05-07 20:24 | 50.04192 | 8.55743 | 367 ft | 19 kts | 249° |
| 2026-05-07 20:24 | 50.04147 | 8.55556 | 363 ft | 18 kts | 250° |
| 2026-05-07 20:24 | 50.04104 | 8.55375 | 364 ft | 18 kts | 250° |
| 2026-05-07 20:24 | 50.04062 | 8.55196 | 362 ft | 18 kts | 250° |
| 2026-05-07 20:25 | 50.04020 | 8.55020 | 360 ft | 17 kts | 250° |
| 2026-05-07 20:25 | 50.03979 | 8.54847 | 363 ft | 17 kts | 250° |
| 2026-05-07 20:25 | 50.03937 | 8.54669 | 362 ft | 18 kts | 250° |
| 2026-05-07 20:25 | 50.03893 | 8.54490 | 354 ft | 19 kts | 249° |
| 2026-05-07 20:26 | 50.03831 | 8.54312 | 354 ft | 18 kts | 234° |
| 2026-05-07 20:26 | 50.03779 | 8.54138 | 357 ft | 17 kts | 249° |
| 2026-05-07 20:26 | 50.03738 | 8.53961 | 357 ft | 17 kts | 249° |
| 2026-05-07 20:26 | 50.03694 | 8.53783 | 348 ft | 18 kts | 249° |
| 2026-05-07 20:27 | 50.03646 | 8.53589 | 355 ft | 20 kts | 246° |
| 2026-05-07 20:27 | 50.03598 | 8.53392 | 352 ft | 19 kts | 250° |
| 2026-05-07 20:27 | 50.03553 | 8.53201 | 354 ft | 19 kts | 249° |
| 2026-05-07 20:27 | 50.03508 | 8.53013 | 350 ft | 18 kts | 249° |
| 2026-05-07 20:28 | 50.03459 | 8.52835 | 346 ft | 18 kts | 246° |
| 2026-05-07 20:28 | 50.03428 | 8.52707 | 336 ft | 10 kts | 250° |
| 2026-05-07 20:28 | 50.03401 | 8.52609 | 337 ft | 9 kts | 235° |
| 2026-05-07 20:28 | 50.03383 | 8.52593 | 340 ft | 1 kts | 189° |
| 2026-05-07 20:29 | 50.03381 | 8.52594 | 341 ft | 1 kts | 181° |
| 2026-05-07 20:29 | 50.03380 | 8.52594 | 341 ft | 0 kts | 180° |
| 2026-05-07 20:30 | 50.03372 | 8.52594 | 336 ft | 5 kts | 180° |
| 2026-05-07 20:30 | 50.03234 | 8.52595 | 340 ft | 43 kts | 180° |
| 2026-05-07 20:31 | 50.02752 | 8.52600 | 338 ft | 97 kts | 179° |
| 2026-05-07 20:31 | 50.01890 | 8.52608 | 340 ft | 146 kts | 179° |
| 2026-05-07 20:31 | 50.00746 | 8.52610 | 344 ft | 185 kts | 179° |
| 2026-05-07 20:31 | 49.99433 | 8.52651 | 800 ft | 192 kts | 175° |
| 2026-05-07 20:32 | 49.98105 | 8.52799 | 1514 ft | 193 kts | 175° |
| 2026-05-07 20:32 | 49.96753 | 8.52854 | 2140 ft | 200 kts | 178° |
| 2026-05-07 20:32 | 49.95268 | 8.52926 | 2430 ft | 225 kts | 177° |
| 2026-05-07 20:32 | 49.93690 | 8.53043 | 3198 ft | 226 kts | 176° |
| 2026-05-07 20:33 | 49.92105 | 8.53162 | 3966 ft | 230 kts | 177° |
| 2026-05-07 20:33 | 49.90496 | 8.53273 | 4721 ft | 233 kts | 177° |
| 2026-05-07 20:33 | 49.88884 | 8.53387 | 5449 ft | 236 kts | 177° |
| 2026-05-07 20:33 | 49.87354 | 8.53411 | 6077 ft | 240 kts | 187° |
| 2026-05-07 20:34 | 49.85704 | 8.52604 | 6392 ft | 261 kts | 201° |
| 2026-05-07 20:34 | 49.83925 | 8.51556 | 6886 ft | 275 kts | 201° |
| 2026-05-07 20:34 | 49.82152 | 8.50540 | 7770 ft | 278 kts | 200° |
| 2026-05-07 20:34 | 49.80307 | 8.49512 | 8551 ft | 283 kts | 200° |
| 2026-05-07 20:35 | 49.78459 | 8.48432 | 9347 ft | 286 kts | 208° |
| 2026-05-07 20:35 | 49.77053 | 8.46351 | 10125 ft | 283 kts | 245° |
| 2026-05-07 20:35 | 49.76548 | 8.43400 | 10818 ft | 285 kts | 269° |
| 2026-05-07 20:35 | 49.76818 | 8.40357 | 11560 ft | 288 kts | 286° |
| 2026-05-07 20:36 | 49.77382 | 8.37354 | 12275 ft | 291 kts | 285° |
| 2026-05-07 20:36 | 49.77900 | 8.34210 | 12517 ft | 315 kts | 282° |
| 2026-05-07 20:36 | 49.78385 | 8.30749 | 12585 ft | 341 kts | 282° |
| 2026-05-07 20:36 | 49.78915 | 8.27028 | 12658 ft | 367 kts | 283° |
| 2026-05-07 20:37 | 49.79497 | 8.23129 | 13249 ft | 373 kts | 281° |
| 2026-05-07 20:37 | 49.79801 | 8.19166 | 13918 ft | 378 kts | 272° |
| 2026-05-07 20:37 | 49.79860 | 8.15036 | 14618 ft | 381 kts | 270° |
| 2026-05-07 20:37 | 49.79886 | 8.10971 | 15263 ft | 385 kts | 272° |
| 2026-05-07 20:38 | 49.80061 | 8.06808 | 15904 ft | 388 kts | 275° |
| 2026-05-07 20:38 | 49.80288 | 8.02634 | 16505 ft | 392 kts | 274° |
| 2026-05-07 20:38 | 49.80459 | 7.98388 | 17135 ft | 395 kts | 273° |
| 2026-05-07 20:38 | 49.80596 | 7.94116 | 17749 ft | 398 kts | 273° |
| 2026-05-07 20:39 | 49.80754 | 7.89805 | 18319 ft | 402 kts | 273° |
| 2026-05-07 20:39 | 49.80928 | 7.85478 | 18874 ft | 405 kts | 273° |
| 2026-05-07 20:39 | 49.81097 | 7.81102 | 19420 ft | 408 kts | 273° |
| 2026-05-07 20:39 | 49.81254 | 7.76755 | 19933 ft | 411 kts | 273° |
| 2026-05-07 20:40 | 49.81414 | 7.72314 | 20433 ft | 414 kts | 273° |
| 2026-05-07 20:40 | 49.81578 | 7.67834 | 20914 ft | 418 kts | 273° |
| 2026-05-07 20:40 | 49.81742 | 7.63335 | 21387 ft | 420 kts | 273° |
| 2026-05-07 20:40 | 49.81903 | 7.58786 | 21837 ft | 423 kts | 273° |
| 2026-05-07 20:41 | 49.82062 | 7.54225 | 22310 ft | 426 kts | 273° |
| 2026-05-07 20:41 | 49.82221 | 7.49630 | 22735 ft | 429 kts | 273° |
| 2026-05-07 20:41 | 49.82381 | 7.44991 | 23148 ft | 431 kts | 273° |
| 2026-05-07 20:41 | 49.82538 | 7.40339 | 23547 ft | 434 kts | 273° |
| 2026-05-07 20:42 | 49.82696 | 7.35652 | 23931 ft | 437 kts | 273° |
| 2026-05-07 20:42 | 49.82852 | 7.30950 | 24335 ft | 438 kts | 273° |
| 2026-05-07 20:42 | 49.83007 | 7.26210 | 24698 ft | 441 kts | 273° |
| 2026-05-07 20:42 | 49.83160 | 7.21472 | 25056 ft | 443 kts | 273° |
| 2026-05-07 20:43 | 49.83312 | 7.16693 | 25424 ft | 445 kts | 272° |
| 2026-05-07 20:43 | 49.83462 | 7.11887 | 25761 ft | 447 kts | 272° |
| 2026-05-07 20:43 | 49.83612 | 7.07065 | 26089 ft | 449 kts | 272° |
| 2026-05-07 20:43 | 49.83759 | 7.02282 | 26405 ft | 451 kts | 272° |
| 2026-05-07 20:44 | 49.83906 | 6.97413 | 26729 ft | 453 kts | 272° |
| 2026-05-07 20:44 | 49.84051 | 6.92515 | 27047 ft | 455 kts | 272° |
| 2026-05-07 20:44 | 49.84196 | 6.87616 | 27357 ft | 457 kts | 272° |
| 2026-05-07 20:44 | 49.84339 | 6.82687 | 27647 ft | 458 kts | 272° |
| 2026-05-07 20:45 | 49.84480 | 6.77734 | 27921 ft | 460 kts | 272° |
| 2026-05-07 20:45 | 49.84619 | 6.72774 | 28200 ft | 462 kts | 272° |
| 2026-05-07 20:45 | 49.84757 | 6.67774 | 28458 ft | 464 kts | 272° |
| 2026-05-07 20:45 | 49.84893 | 6.62777 | 28717 ft | 466 kts | 272° |
| 2026-05-07 20:46 | 49.85028 | 6.57744 | 28981 ft | 467 kts | 272° |
| 2026-05-07 20:46 | 49.85161 | 6.52706 | 29236 ft | 469 kts | 272° |
| 2026-05-07 20:46 | 49.85288 | 6.47646 | 29497 ft | 470 kts | 271° |
| 2026-05-07 20:46 | 49.85036 | 6.42641 | 29694 ft | 472 kts | 260° |
| 2026-05-07 20:47 | 49.84348 | 6.37650 | 29883 ft | 474 kts | 256° |
| 2026-05-07 20:47 | 49.83463 | 6.32718 | 30122 ft | 476 kts | 253° |
| 2026-05-07 20:47 | 49.82480 | 6.27809 | 30334 ft | 478 kts | 252° |
| 2026-05-07 20:47 | 49.81413 | 6.22935 | 30550 ft | 479 kts | 251° |
| 2026-05-07 20:48 | 49.80327 | 6.18038 | 30758 ft | 481 kts | 252° |
| 2026-05-07 20:48 | 49.79276 | 6.13099 | 30960 ft | 482 kts | 252° |
| 2026-05-07 20:48 | 49.78239 | 6.08161 | 31147 ft | 484 kts | 252° |
| 2026-05-07 20:48 | 49.77172 | 6.03211 | 31350 ft | 485 kts | 251° |
| 2026-05-07 20:49 | 49.76090 | 5.98267 | 31598 ft | 486 kts | 252° |
| 2026-05-07 20:49 | 49.75014 | 5.93305 | 31880 ft | 485 kts | 252° |
| 2026-05-07 20:49 | 49.73948 | 5.88360 | 32154 ft | 484 kts | 252° |
| 2026-05-07 20:49 | 49.72877 | 5.83427 | 32441 ft | 483 kts | 252° |
| 2026-05-07 20:50 | 49.71812 | 5.78559 | 32691 ft | 483 kts | 251° |
| 2026-05-07 20:50 | 49.70736 | 5.73645 | 32938 ft | 482 kts | 252° |
| 2026-05-07 20:50 | 49.69664 | 5.68744 | 33183 ft | 482 kts | 251° |
| 2026-05-07 20:50 | 49.68587 | 5.63835 | 33446 ft | 481 kts | 251° |
| 2026-05-07 20:51 | 49.67509 | 5.58945 | 33719 ft | 480 kts | 251° |
| 2026-05-07 20:51 | 49.66433 | 5.54067 | 33977 ft | 479 kts | 251° |
| 2026-05-07 20:51 | 49.65353 | 5.49180 | 34203 ft | 479 kts | 251° |
| 2026-05-07 20:51 | 49.64275 | 5.44316 | 34422 ft | 479 kts | 251° |
| 2026-05-07 20:52 | 49.63197 | 5.39470 | 34666 ft | 478 kts | 251° |
| 2026-05-07 20:52 | 49.62118 | 5.34624 | 34863 ft | 478 kts | 251° |
| 2026-05-07 20:52 | 49.61050 | 5.29837 | 35064 ft | 478 kts | 251° |
| 2026-05-07 20:52 | 49.59965 | 5.24986 | 35292 ft | 478 kts | 251° |
| 2026-05-07 20:53 | 49.58891 | 5.20159 | 35491 ft | 477 kts | 252° |
| 2026-05-07 20:53 | 49.57860 | 5.15287 | 35669 ft | 478 kts | 252° |
| 2026-05-07 20:53 | 49.56840 | 5.10416 | 35893 ft | 477 kts | 252° |
| 2026-05-07 20:53 | 49.55790 | 5.05565 | 36099 ft | 477 kts | 251° |
| 2026-05-07 20:54 | 49.54730 | 5.00731 | 36284 ft | 477 kts | 251° |
| 2026-05-07 20:54 | 49.53680 | 4.95888 | 36467 ft | 477 kts | 252° |
| 2026-05-07 20:54 | 49.52636 | 4.91040 | 36646 ft | 477 kts | 251° |
| 2026-05-07 20:54 | 49.51603 | 4.86285 | 36995 ft | 472 kts | 251° |
| 2026-05-07 20:55 | 49.50554 | 4.81494 | 37062 ft | 473 kts | 251° |
| 2026-05-07 20:55 | 49.48458 | 4.71915 | 37066 ft | 469 kts | 251° |
| 2026-05-07 20:56 | 49.46377 | 4.62447 | 37067 ft | 466 kts | 251° |
| 2026-05-07 20:56 | 49.44304 | 4.53069 | 37067 ft | 467 kts | 251° |
| 2026-05-07 20:57 | 49.42208 | 4.43615 | 37066 ft | 468 kts | 251° |
| 2026-05-07 20:57 | 49.40108 | 4.34203 | 37068 ft | 468 kts | 251° |
| 2026-05-07 20:58 | 49.37989 | 4.24727 | 37070 ft | 469 kts | 251° |
| 2026-05-07 20:58 | 49.35860 | 4.15272 | 37071 ft | 468 kts | 251° |
| 2026-05-07 20:59 | 49.33753 | 4.05941 | 37070 ft | 468 kts | 251° |
| 2026-05-07 20:59 | 49.31614 | 3.96521 | 37068 ft | 467 kts | 251° |
| 2026-05-07 21:00 | 49.29490 | 3.87192 | 37066 ft | 467 kts | 251° |
| 2026-05-07 21:00 | 49.27325 | 3.77742 | 37066 ft | 467 kts | 250° |
| 2026-05-07 21:01 | 49.25186 | 3.68432 | 37067 ft | 467 kts | 250° |
| 2026-05-07 21:01 | 49.23023 | 3.59068 | 37066 ft | 466 kts | 250° |
| 2026-05-07 21:02 | 49.20854 | 3.49721 | 37066 ft | 467 kts | 250° |
| 2026-05-07 21:02 | 49.18673 | 3.40362 | 37068 ft | 467 kts | 250° |
| 2026-05-07 21:03 | 49.16512 | 3.31115 | 37071 ft | 467 kts | 250° |
| 2026-05-07 21:03 | 49.14682 | 3.23331 | 37073 ft | 468 kts | 250° |
| 2026-05-07 21:04 | 49.12480 | 3.13991 | 37073 ft | 467 kts | 250° |
| 2026-05-07 21:04 | 49.10273 | 3.04676 | 37070 ft | 465 kts | 250° |
| 2026-05-07 21:05 | 49.08064 | 2.95386 | 37067 ft | 465 kts | 250° |
| 2026-05-07 21:05 | 49.05861 | 2.86164 | 37067 ft | 466 kts | 250° |
| 2026-05-07 21:06 | 49.03636 | 2.76888 | 37069 ft | 467 kts | 250° |
| 2026-05-07 21:06 | 49.01392 | 2.67577 | 37075 ft | 468 kts | 250° |
| 2026-05-07 21:07 | 48.99143 | 2.58273 | 37079 ft | 468 kts | 250° |
| 2026-05-07 21:07 | 48.96917 | 2.49118 | 37077 ft | 466 kts | 249° |
| 2026-05-07 21:08 | 48.94664 | 2.39877 | 37075 ft | 466 kts | 249° |
| 2026-05-07 21:08 | 48.92413 | 2.30689 | 37073 ft | 465 kts | 249° |
| 2026-05-07 21:09 | 48.90145 | 2.21473 | 37071 ft | 466 kts | 249° |
| 2026-05-07 21:09 | 48.87869 | 2.12260 | 37059 ft | 465 kts | 249° |
| 2026-05-07 21:10 | 48.85594 | 2.03082 | 37058 ft | 464 kts | 249° |
| 2026-05-07 21:10 | 48.83308 | 1.93906 | 37052 ft | 465 kts | 249° |
| 2026-05-07 21:11 | 48.81012 | 1.84726 | 37056 ft | 465 kts | 249° |
| 2026-05-07 21:11 | 48.77562 | 1.71001 | 37056 ft | 466 kts | 249° |
| 2026-05-07 21:12 | 48.75259 | 1.61883 | 37059 ft | 466 kts | 249° |
| 2026-05-07 21:12 | 48.72929 | 1.52699 | 37055 ft | 466 kts | 249° |
| 2026-05-07 21:13 | 48.70599 | 1.43546 | 37055 ft | 465 kts | 249° |
| 2026-05-07 21:13 | 48.68261 | 1.34407 | 37055 ft | 464 kts | 248° |
| 2026-05-07 21:14 | 48.65925 | 1.25304 | 37054 ft | 464 kts | 248° |
| 2026-05-07 21:14 | 48.63607 | 1.16312 | 37050 ft | 465 kts | 248° |
| 2026-05-07 21:15 | 48.61247 | 1.07193 | 37040 ft | 466 kts | 248° |
| 2026-05-07 21:15 | 48.58881 | 0.98083 | 37050 ft | 467 kts | 248° |
| 2026-05-07 21:16 | 48.56496 | 0.88945 | 37045 ft | 468 kts | 248° |
| 2026-05-07 21:16 | 48.54107 | 0.79819 | 37045 ft | 466 kts | 248° |
| 2026-05-07 21:17 | 48.51732 | 0.70785 | 37043 ft | 465 kts | 248° |
| 2026-05-07 21:17 | 48.49340 | 0.61724 | 37033 ft | 465 kts | 248° |
| 2026-05-07 21:18 | 48.46940 | 0.52670 | 37036 ft | 465 kts | 248° |
| 2026-05-07 21:18 | 48.44566 | 0.43739 | 37037 ft | 466 kts | 248° |
| 2026-05-07 21:19 | 48.42139 | 0.34655 | 37036 ft | 467 kts | 248° |
| 2026-05-07 21:19 | 48.39711 | 0.25594 | 37031 ft | 467 kts | 248° |
| 2026-05-07 21:20 | 48.37272 | 0.16534 | 37031 ft | 466 kts | 247° |
| 2026-05-07 21:20 | 48.34834 | 0.07510 | 37029 ft | 466 kts | 247° |
| 2026-05-07 21:21 | 48.32406 | -0.01441 | 37026 ft | 465 kts | 247° |
| 2026-05-07 21:21 | 48.29951 | -0.10461 | 37023 ft | 469 kts | 247° |
| 2026-05-07 21:22 | 48.27467 | -0.19546 | 37034 ft | 470 kts | 247° |
| 2026-05-07 21:22 | 48.25542 | -0.28893 | 37046 ft | 470 kts | 260° |
| 2026-05-07 21:23 | 48.24494 | -0.38586 | 37032 ft | 471 kts | 260° |
| 2026-05-07 21:23 | 48.23430 | -0.48273 | 37034 ft | 470 kts | 260° |
| 2026-05-07 21:24 | 48.22358 | -0.57913 | 37023 ft | 470 kts | 260° |
| 2026-05-07 21:24 | 48.21281 | -0.67580 | 37025 ft | 470 kts | 259° |
| 2026-05-07 21:25 | 48.20189 | -0.77262 | 37027 ft | 471 kts | 260° |
| 2026-05-07 21:25 | 48.19090 | -0.86949 | 37024 ft | 471 kts | 259° |
| 2026-05-07 21:26 | 48.17984 | -0.96617 | 37023 ft | 470 kts | 259° |
| 2026-05-07 21:26 | 48.16880 | -1.06198 | 37018 ft | 469 kts | 259° |
| 2026-05-07 21:27 | 48.15761 | -1.15826 | 37017 ft | 469 kts | 259° |
| 2026-05-07 21:27 | 48.14632 | -1.25464 | 37019 ft | 470 kts | 259° |
| 2026-05-07 21:28 | 48.13496 | -1.35113 | 37022 ft | 470 kts | 259° |
| 2026-05-07 21:28 | 48.12348 | -1.44763 | 37024 ft | 471 kts | 259° |
| 2026-05-07 21:29 | 48.11191 | -1.54430 | 37027 ft | 472 kts | 259° |
| 2026-05-07 21:29 | 48.10033 | -1.64031 | 37026 ft | 472 kts | 259° |
| 2026-05-07 21:30 | 48.08865 | -1.73648 | 37026 ft | 471 kts | 259° |
| 2026-05-07 21:30 | 48.07688 | -1.83262 | 37023 ft | 470 kts | 259° |
| 2026-05-07 21:31 | 48.06504 | -1.92867 | 37020 ft | 469 kts | 259° |
| 2026-05-07 21:31 | 48.05314 | -2.02446 | 37017 ft | 469 kts | 259° |
| 2026-05-07 21:32 | 48.04113 | -2.12051 | 37020 ft | 470 kts | 258° |
| 2026-05-07 21:32 | 48.02909 | -2.21614 | 37013 ft | 472 kts | 258° |
| 2026-05-07 21:33 | 48.01689 | -2.31241 | 37019 ft | 471 kts | 258° |
| 2026-05-07 21:33 | 48.00460 | -2.40859 | 37018 ft | 470 kts | 258° |
| 2026-05-07 21:34 | 47.99227 | -2.50446 | 37003 ft | 470 kts | 258° |
| 2026-05-07 21:34 | 47.97986 | -2.60026 | 37000 ft | 468 kts | 258° |
| 2026-05-07 21:35 | 47.96741 | -2.69573 | 36998 ft | 469 kts | 258° |
| 2026-05-07 21:35 | 47.95483 | -2.79146 | 37002 ft | 470 kts | 258° |
| 2026-05-07 21:36 | 47.94227 | -2.88660 | 37004 ft | 470 kts | 258° |
| 2026-05-07 21:36 | 47.92962 | -2.98155 | 37005 ft | 470 kts | 258° |
| 2026-05-07 21:37 | 47.91681 | -3.07726 | 37007 ft | 470 kts | 258° |
| 2026-05-07 21:37 | 47.90390 | -3.17283 | 37008 ft | 470 kts | 258° |
| 2026-05-07 21:38 | 47.89095 | -3.26831 | 37011 ft | 470 kts | 258° |
| 2026-05-07 21:38 | 47.87787 | -3.36392 | 37012 ft | 471 kts | 258° |
| 2026-05-07 21:39 | 47.86473 | -3.45953 | 37015 ft | 471 kts | 258° |
| 2026-05-07 21:39 | 47.85160 | -3.55431 | 37013 ft | 469 kts | 258° |
| 2026-05-07 21:40 | 47.83835 | -3.64940 | 37009 ft | 468 kts | 258° |
| 2026-05-07 21:40 | 47.82506 | -3.74417 | 37010 ft | 468 kts | 258° |
| 2026-05-07 21:41 | 47.81166 | -3.83907 | 37011 ft | 469 kts | 258° |
| 2026-05-07 21:41 | 47.79817 | -3.93403 | 37014 ft | 469 kts | 258° |
| 2026-05-07 21:42 | 47.78465 | -4.02864 | 37020 ft | 471 kts | 258° |
| 2026-05-07 21:42 | 47.77095 | -4.12384 | 37023 ft | 471 kts | 257° |
| 2026-05-07 21:43 | 47.75719 | -4.21895 | 37021 ft | 470 kts | 257° |
| 2026-05-07 21:43 | 47.74337 | -4.31377 | 37018 ft | 469 kts | 257° |
| 2026-05-07 21:44 | 47.72951 | -4.40834 | 37015 ft | 468 kts | 257° |
| 2026-05-07 21:44 | 47.71569 | -4.50212 | 37012 ft | 467 kts | 257° |
| 2026-05-07 21:45 | 47.70169 | -4.59645 | 37013 ft | 467 kts | 257° |
| 2026-05-07 21:45 | 47.68762 | -4.69069 | 37013 ft | 467 kts | 257° |
| 2026-05-07 21:46 | 47.67371 | -4.78336 | 37014 ft | 467 kts | 257° |
| 2026-05-07 21:46 | 47.65951 | -4.87741 | 37015 ft | 467 kts | 257° |
| 2026-05-07 21:47 | 47.64524 | -4.97135 | 37015 ft | 466 kts | 257° |
| 2026-05-07 21:47 | 47.63091 | -5.06512 | 37014 ft | 466 kts | 257° |
| 2026-05-07 21:48 | 47.61650 | -5.15885 | 37017 ft | 467 kts | 257° |
| 2026-05-07 21:48 | 47.60195 | -5.25287 | 37016 ft | 469 kts | 257° |
| 2026-05-07 21:49 | 47.58742 | -5.34631 | 37017 ft | 468 kts | 257° |
| 2026-05-07 21:49 | 47.57271 | -5.44038 | 37018 ft | 468 kts | 257° |
| 2026-05-07 21:50 | 47.55793 | -5.53430 | 37018 ft | 467 kts | 257° |
| 2026-05-07 21:50 | 47.54562 | -5.61217 | 37017 ft | 467 kts | 257° |
| 2026-05-07 21:51 | 47.53075 | -5.70571 | 37015 ft | 467 kts | 257° |
| 2026-05-07 21:51 | 47.51579 | -5.79925 | 37016 ft | 467 kts | 257° |
| 2026-05-07 21:52 | 47.50077 | -5.89262 | 37013 ft | 466 kts | 257° |
| 2026-05-07 21:52 | 47.48571 | -5.98586 | 37012 ft | 466 kts | 256° |
| 2026-05-07 21:53 | 47.47053 | -6.07907 | 37015 ft | 466 kts | 257° |
| 2026-05-07 21:53 | 47.45547 | -6.17124 | 37004 ft | 465 kts | 256° |
| 2026-05-07 21:54 | 47.44018 | -6.26423 | 37001 ft | 464 kts | 256° |
| 2026-05-07 21:54 | 47.42488 | -6.35680 | 37003 ft | 465 kts | 256° |
| 2026-05-07 21:55 | 47.40942 | -6.44975 | 37008 ft | 467 kts | 256° |
| 2026-05-07 21:55 | 47.39384 | -6.54306 | 36998 ft | 468 kts | 256° |
| 2026-05-07 21:56 | 47.37821 | -6.63593 | 36998 ft | 465 kts | 256° |
| 2026-05-07 21:56 | 47.36258 | -6.72857 | 36996 ft | 465 kts | 256° |
| 2026-05-07 21:57 | 47.34690 | -6.82090 | 36994 ft | 464 kts | 256° |
| 2026-05-07 21:57 | 47.33126 | -6.91249 | 36991 ft | 463 kts | 256° |
| 2026-05-07 21:58 | 47.31549 | -7.00435 | 36989 ft | 462 kts | 256° |
| 2026-05-07 21:58 | 47.29964 | -7.09625 | 36991 ft | 463 kts | 256° |
| 2026-05-07 21:59 | 47.28366 | -7.18828 | 36991 ft | 463 kts | 256° |
| 2026-05-07 21:59 | 47.26764 | -7.28029 | 36989 ft | 464 kts | 256° |
| 2026-05-07 22:00 | 47.25154 | -7.37212 | 36990 ft | 463 kts | 256° |
| 2026-05-07 22:00 | 47.23538 | -7.46390 | 36991 ft | 463 kts | 256° |
| 2026-05-07 22:01 | 47.21910 | -7.55566 | 36991 ft | 462 kts | 256° |
| 2026-05-07 22:01 | 47.20296 | -7.64648 | 36990 ft | 463 kts | 256° |
| 2026-05-07 22:02 | 47.18657 | -7.73806 | 36974 ft | 462 kts | 256° |
| 2026-05-07 22:02 | 47.17015 | -7.82942 | 36973 ft | 462 kts | 256° |
| 2026-05-07 22:03 | 47.15367 | -7.92073 | 36974 ft | 462 kts | 256° |
| 2026-05-07 22:03 | 47.13709 | -8.01185 | 36974 ft | 462 kts | 256° |
| 2026-05-07 22:04 | 47.12048 | -8.10295 | 36977 ft | 461 kts | 256° |
| 2026-05-07 22:04 | 47.10384 | -8.19366 | 36977 ft | 460 kts | 256° |
| 2026-05-07 22:05 | 47.08722 | -8.28379 | 36976 ft | 460 kts | 256° |
| 2026-05-07 22:05 | 47.07045 | -8.37437 | 36976 ft | 459 kts | 256° |
| 2026-05-07 22:06 | 47.05363 | -8.46474 | 36974 ft | 459 kts | 255° |
| 2026-05-07 22:06 | 47.03669 | -8.55524 | 36981 ft | 460 kts | 255° |
| 2026-05-07 22:07 | 47.01965 | -8.64598 | 36985 ft | 462 kts | 255° |
| 2026-05-07 22:07 | 47.01110 | -8.69132 | 37170 ft | 462 kts | 255° |
| 2026-05-07 22:07 | 47.00251 | -8.73670 | 37318 ft | 462 kts | 254° |
| 2026-05-07 22:08 | 46.99121 | -8.78083 | 37434 ft | 462 kts | 248° |
| 2026-05-07 22:08 | 46.97880 | -8.82443 | 37532 ft | 463 kts | 248° |
| 2026-05-07 22:08 | 46.96680 | -8.86754 | 37669 ft | 463 kts | 248° |
| 2026-05-07 22:08 | 46.95452 | -8.91116 | 37783 ft | 464 kts | 248° |
| 2026-05-07 22:09 | 46.94204 | -8.95473 | 37927 ft | 464 kts | 248° |
| 2026-05-07 22:09 | 46.92955 | -8.99838 | 37964 ft | 467 kts | 248° |
| 2026-05-07 22:09 | 46.90463 | -9.08602 | 37978 ft | 465 kts | 248° |
| 2026-05-07 22:10 | 46.87961 | -9.17320 | 37968 ft | 462 kts | 248° |
| 2026-05-07 22:10 | 46.85479 | -9.25965 | 37959 ft | 461 kts | 248° |
| 2026-05-07 22:11 | 46.82979 | -9.34625 | 37959 ft | 462 kts | 248° |
| 2026-05-07 22:11 | 46.80478 | -9.43269 | 37952 ft | 462 kts | 248° |
| 2026-05-07 22:12 | 46.77986 | -9.51850 | 37951 ft | 461 kts | 248° |
| 2026-05-07 22:12 | 46.75475 | -9.60463 | 37957 ft | 461 kts | 248° |
| 2026-05-07 22:13 | 46.72958 | -9.69065 | 37952 ft | 460 kts | 247° |
| 2026-05-07 22:13 | 46.70448 | -9.77617 | 37955 ft | 458 kts | 247° |
| 2026-05-07 22:14 | 46.67940 | -9.86128 | 37947 ft | 458 kts | 247° |
| 2026-05-07 22:14 | 46.65420 | -9.94660 | 37945 ft | 458 kts | 247° |
| 2026-05-07 22:15 | 46.62908 | -10.03125 | 37945 ft | 459 kts | 247° |
| 2026-05-07 22:15 | 46.60374 | -10.11636 | 37954 ft | 457 kts | 247° |
| 2026-05-07 22:16 | 46.57847 | -10.20101 | 37946 ft | 455 kts | 247° |
| 2026-05-07 22:16 | 46.55317 | -10.28541 | 37945 ft | 456 kts | 247° |
| 2026-05-07 22:17 | 46.52847 | -10.36759 | 37945 ft | 456 kts | 247° |
| 2026-05-07 22:17 | 46.50320 | -10.45135 | 37955 ft | 456 kts | 246° |
| 2026-05-07 22:18 | 46.46493 | -10.57769 | 37955 ft | 455 kts | 246° |
| 2026-05-07 22:19 | 46.43935 | -10.66179 | 37956 ft | 456 kts | 246° |
| 2026-05-07 22:19 | 46.41360 | -10.74614 | 37958 ft | 458 kts | 246° |
| 2026-05-07 22:20 | 46.38772 | -10.83065 | 37959 ft | 459 kts | 246° |
| 2026-05-07 22:20 | 46.36183 | -10.91495 | 37953 ft | 457 kts | 246° |
| 2026-05-07 22:21 | 46.33592 | -10.99891 | 37952 ft | 456 kts | 246° |
| 2026-05-07 22:21 | 46.31002 | -11.08273 | 37948 ft | 455 kts | 246° |
| 2026-05-07 22:22 | 46.28406 | -11.16633 | 37945 ft | 456 kts | 246° |
| 2026-05-07 22:22 | 46.25817 | -11.24949 | 37947 ft | 456 kts | 246° |
| 2026-05-07 22:23 | 46.23205 | -11.33312 | 37957 ft | 456 kts | 245° |
| 2026-05-07 22:23 | 46.20591 | -11.41652 | 37947 ft | 456 kts | 245° |
| 2026-05-07 22:24 | 46.17973 | -11.49978 | 37948 ft | 455 kts | 245° |
| 2026-05-07 22:24 | 46.15355 | -11.58280 | 37944 ft | 454 kts | 245° |
| 2026-05-07 22:25 | 46.12735 | -11.66549 | 37942 ft | 453 kts | 245° |
| 2026-05-07 22:25 | 46.10110 | -11.74823 | 37940 ft | 454 kts | 245° |
| 2026-05-07 22:26 | 46.07477 | -11.83087 | 37955 ft | 454 kts | 245° |
| 2026-05-07 22:26 | 46.04854 | -11.91295 | 37944 ft | 453 kts | 245° |
| 2026-05-07 22:27 | 46.02212 | -11.99536 | 37945 ft | 453 kts | 245° |
| 2026-05-07 22:27 | 45.99566 | -12.07763 | 37954 ft | 453 kts | 245° |
| 2026-05-07 22:28 | 45.96917 | -12.15977 | 37943 ft | 453 kts | 245° |
| 2026-05-07 22:28 | 45.94259 | -12.24187 | 37948 ft | 454 kts | 245° |
| 2026-05-07 22:29 | 45.91588 | -12.32416 | 37947 ft | 454 kts | 244° |
| 2026-05-07 22:29 | 45.88928 | -12.40581 | 37953 ft | 454 kts | 244° |
| 2026-05-07 22:30 | 45.86238 | -12.48815 | 37958 ft | 456 kts | 244° |
| 2026-05-07 22:30 | 45.83534 | -12.57062 | 37958 ft | 457 kts | 244° |
| 2026-05-07 22:31 | 45.80824 | -12.65303 | 37948 ft | 456 kts | 244° |
| 2026-05-07 22:31 | 45.78115 | -12.73519 | 37953 ft | 456 kts | 244° |
| 2026-05-07 22:32 | 45.75395 | -12.81737 | 37948 ft | 457 kts | 244° |
| 2026-05-07 22:32 | 45.72660 | -12.89975 | 37947 ft | 458 kts | 244° |
| 2026-05-07 22:33 | 45.69921 | -12.98205 | 37959 ft | 458 kts | 244° |
| 2026-05-07 22:33 | 45.67177 | -13.06421 | 37950 ft | 458 kts | 244° |
| 2026-05-07 22:34 | 45.64439 | -13.14590 | 37949 ft | 458 kts | 243° |
| 2026-05-07 22:34 | 45.61685 | -13.22785 | 37955 ft | 459 kts | 243° |
| 2026-05-07 22:35 | 45.58908 | -13.31018 | 37962 ft | 460 kts | 243° |
| 2026-05-07 22:35 | 45.56129 | -13.39239 | 37949 ft | 459 kts | 243° |
| 2026-05-07 22:36 | 45.53347 | -13.47439 | 37952 ft | 458 kts | 243° |
| 2026-05-07 22:36 | 45.50586 | -13.55553 | 37948 ft | 458 kts | 243° |
| 2026-05-07 22:37 | 45.47777 | -13.63779 | 37943 ft | 459 kts | 243° |
| 2026-05-07 22:37 | 45.44991 | -13.71916 | 37955 ft | 460 kts | 243° |
| 2026-05-07 22:38 | 45.42178 | -13.80107 | 37950 ft | 461 kts | 243° |
| 2026-05-07 22:38 | 45.39814 | -13.86970 | 37957 ft | 461 kts | 243° |
| 2026-05-07 22:39 | 45.37004 | -13.95108 | 37950 ft | 461 kts | 243° |
| 2026-05-07 22:39 | 45.34177 | -14.03266 | 37946 ft | 460 kts | 243° |
| 2026-05-07 22:40 | 45.31336 | -14.11440 | 37944 ft | 462 kts | 242° |
| 2026-05-07 22:40 | 45.28486 | -14.19618 | 37949 ft | 462 kts | 242° |
| 2026-05-07 22:41 | 45.25624 | -14.27801 | 37960 ft | 463 kts | 242° |
| 2026-05-07 22:41 | 45.22756 | -14.35980 | 37954 ft | 463 kts | 242° |
| 2026-05-07 22:42 | 45.19878 | -14.44161 | 37951 ft | 463 kts | 242° |
| 2026-05-07 22:42 | 45.16998 | -14.52324 | 37957 ft | 462 kts | 242° |
| 2026-05-07 22:43 | 45.14108 | -14.60489 | 37937 ft | 463 kts | 242° |
| 2026-05-07 22:43 | 45.11209 | -14.68652 | 37931 ft | 464 kts | 242° |
| 2026-05-07 22:44 | 45.08325 | -14.76751 | 37938 ft | 464 kts | 242° |
| 2026-05-07 22:44 | 45.05410 | -14.84921 | 37932 ft | 465 kts | 242° |
| 2026-05-07 22:45 | 45.02492 | -14.93063 | 37934 ft | 463 kts | 242° |
| 2026-05-07 22:45 | 44.99575 | -15.01182 | 37928 ft | 463 kts | 242° |
| 2026-05-07 22:46 | 44.96599 | -15.09288 | 37928 ft | 465 kts | 241° |
| 2026-05-07 22:46 | 44.93620 | -15.17409 | 37936 ft | 466 kts | 241° |
| 2026-05-07 22:47 | 44.90632 | -15.25524 | 37930 ft | 465 kts | 241° |
| 2026-05-07 22:47 | 44.87646 | -15.33605 | 37935 ft | 464 kts | 241° |
| 2026-05-07 22:48 | 44.84658 | -15.41682 | 37933 ft | 465 kts | 241° |
| 2026-05-07 22:48 | 44.81649 | -15.49773 | 37935 ft | 467 kts | 241° |
| 2026-05-07 22:49 | 44.78628 | -15.57888 | 37935 ft | 469 kts | 241° |
| 2026-05-07 22:49 | 44.75593 | -15.66004 | 37940 ft | 468 kts | 240° |
| 2026-05-07 22:50 | 44.72565 | -15.74088 | 37937 ft | 467 kts | 240° |
| 2026-05-07 22:50 | 44.69552 | -15.82103 | 37934 ft | 467 kts | 240° |
| 2026-05-07 22:51 | 44.66508 | -15.90176 | 37935 ft | 469 kts | 240° |
| 2026-05-07 22:51 | 44.63446 | -15.98277 | 37935 ft | 470 kts | 240° |
| 2026-05-07 22:52 | 44.60372 | -16.06382 | 37937 ft | 471 kts | 240° |
| 2026-05-07 22:52 | 44.57287 | -16.14498 | 37940 ft | 471 kts | 240° |
| 2026-05-07 22:53 | 44.54201 | -16.22588 | 37941 ft | 470 kts | 240° |
| 2026-05-07 22:53 | 44.51111 | -16.30668 | 37955 ft | 469 kts | 240° |
| 2026-05-07 22:54 | 44.48041 | -16.38673 | 37942 ft | 469 kts | 240° |
| 2026-05-07 22:54 | 44.44945 | -16.46716 | 37947 ft | 469 kts | 240° |
| 2026-05-07 22:55 | 44.41843 | -16.54759 | 37947 ft | 469 kts | 240° |
| 2026-05-07 22:55 | 44.38735 | -16.62791 | 37942 ft | 470 kts | 240° |
| 2026-05-07 22:56 | 44.35619 | -16.70820 | 37941 ft | 470 kts | 240° |
| 2026-05-07 22:56 | 44.32495 | -16.78848 | 37943 ft | 470 kts | 240° |
| 2026-05-07 22:57 | 44.29362 | -16.86873 | 37940 ft | 471 kts | 240° |
| 2026-05-07 22:57 | 44.26219 | -16.94905 | 37947 ft | 472 kts | 240° |
| 2026-05-07 22:58 | 44.23079 | -17.02906 | 37944 ft | 474 kts | 240° |
| 2026-05-07 22:58 | 44.19902 | -17.10976 | 37945 ft | 475 kts | 240° |
| 2026-05-07 22:59 | 44.16716 | -17.19046 | 37941 ft | 475 kts | 240° |
| 2026-05-07 22:59 | 44.13528 | -17.27099 | 37949 ft | 475 kts | 239° |
| 2026-05-07 23:00 | 44.10325 | -17.35165 | 37940 ft | 476 kts | 239° |
| 2026-05-07 23:00 | 44.07115 | -17.43230 | 37921 ft | 477 kts | 239° |
| 2026-05-07 23:01 | 44.03917 | -17.51239 | 37923 ft | 477 kts | 239° |
| 2026-05-07 23:01 | 44.00696 | -17.59284 | 37921 ft | 477 kts | 239° |
| 2026-05-07 23:02 | 43.97461 | -17.67338 | 37922 ft | 478 kts | 239° |
| 2026-05-07 23:02 | 43.94210 | -17.75407 | 37924 ft | 479 kts | 239° |
| 2026-05-07 23:03 | 43.90953 | -17.83478 | 37924 ft | 479 kts | 239° |
| 2026-05-07 23:03 | 43.87688 | -17.91537 | 37923 ft | 479 kts | 239° |
| 2026-05-07 23:04 | 43.84419 | -17.99586 | 37926 ft | 479 kts | 239° |
| 2026-05-07 23:04 | 43.81145 | -18.07623 | 37927 ft | 479 kts | 239° |
| 2026-05-07 23:05 | 43.77869 | -18.15646 | 37921 ft | 478 kts | 239° |
| 2026-05-07 23:05 | 43.74609 | -18.23604 | 37924 ft | 478 kts | 239° |
| 2026-05-07 23:06 | 43.71324 | -18.31604 | 37922 ft | 478 kts | 239° |
| 2026-05-07 23:06 | 43.68031 | -18.39596 | 37912 ft | 479 kts | 239° |
| 2026-05-07 23:07 | 43.64732 | -18.47584 | 37912 ft | 479 kts | 239° |
| 2026-05-07 23:07 | 43.61425 | -18.55569 | 37914 ft | 479 kts | 239° |
| 2026-05-07 23:08 | 43.58110 | -18.63550 | 37914 ft | 480 kts | 239° |
| 2026-05-07 23:08 | 43.54784 | -18.71537 | 37917 ft | 481 kts | 239° |
| 2026-05-07 23:09 | 43.51443 | -18.79535 | 37918 ft | 482 kts | 239° |
| 2026-05-07 23:09 | 43.48092 | -18.87539 | 37913 ft | 482 kts | 239° |
| 2026-05-07 23:10 | 43.44754 | -18.95486 | 37917 ft | 484 kts | 239° |
| 2026-05-07 23:10 | 43.41388 | -19.03480 | 37913 ft | 482 kts | 239° |
| 2026-05-07 23:11 | 43.38020 | -19.11454 | 37910 ft | 481 kts | 239° |
| 2026-05-07 23:11 | 43.34657 | -19.19395 | 37909 ft | 481 kts | 239° |
| 2026-05-07 23:12 | 43.31286 | -19.27337 | 37921 ft | 481 kts | 238° |
| 2026-05-07 23:12 | 43.27900 | -19.35285 | 37924 ft | 483 kts | 238° |
| 2026-05-07 23:13 | 43.24499 | -19.43254 | 37935 ft | 485 kts | 238° |
| 2026-05-07 23:13 | 43.21089 | -19.51217 | 37933 ft | 484 kts | 238° |
| 2026-05-07 23:14 | 43.17704 | -19.59105 | 37933 ft | 483 kts | 238° |
| 2026-05-07 23:14 | 43.14293 | -19.67027 | 37934 ft | 482 kts | 238° |
| 2026-05-07 23:15 | 43.10880 | -19.74935 | 37931 ft | 482 kts | 238° |
| 2026-05-07 23:15 | 43.07456 | -19.82841 | 37929 ft | 483 kts | 238° |
| 2026-05-07 23:16 | 43.04032 | -19.90740 | 37929 ft | 483 kts | 238° |
| 2026-05-07 23:16 | 43.00611 | -19.98595 | 37929 ft | 483 kts | 238° |
| 2026-05-07 23:17 | 42.96792 | -20.06120 | 37936 ft | 484 kts | 233° |
| 2026-05-07 23:17 | 42.92855 | -20.13614 | 37940 ft | 486 kts | 233° |
| 2026-05-07 23:18 | 42.88916 | -20.21102 | 37949 ft | 486 kts | 233° |
| 2026-05-07 23:18 | 42.84971 | -20.28572 | 37942 ft | 485 kts | 233° |
| 2026-05-07 23:19 | 42.81022 | -20.36036 | 37946 ft | 485 kts | 233° |
| 2026-05-07 23:19 | 42.77095 | -20.43438 | 37940 ft | 485 kts | 233° |
| 2026-05-07 23:20 | 42.73141 | -20.50873 | 37946 ft | 484 kts | 233° |
| 2026-05-07 23:20 | 42.69182 | -20.58299 | 37944 ft | 484 kts | 233° |
| 2026-05-07 23:21 | 42.65229 | -20.65696 | 37936 ft | 483 kts | 233° |
| 2026-05-07 23:21 | 42.61270 | -20.73083 | 37935 ft | 484 kts | 233° |
| 2026-05-07 23:22 | 42.57322 | -20.80437 | 37946 ft | 485 kts | 233° |
| 2026-05-07 23:22 | 42.53332 | -20.87842 | 37944 ft | 486 kts | 233° |
| 2026-05-07 23:23 | 42.49331 | -20.95260 | 37944 ft | 486 kts | 233° |
| 2026-05-07 23:23 | 42.45348 | -21.02616 | 37943 ft | 487 kts | 233° |
| 2026-05-07 23:24 | 42.41334 | -21.10018 | 37953 ft | 488 kts | 233° |
| 2026-05-07 23:24 | 42.37313 | -21.17412 | 37938 ft | 487 kts | 233° |
| 2026-05-07 23:25 | 42.33301 | -21.24773 | 37940 ft | 485 kts | 233° |
| 2026-05-07 23:25 | 42.29285 | -21.32121 | 37935 ft | 486 kts | 233° |
| 2026-05-07 23:26 | 42.25941 | -21.38229 | 37931 ft | 487 kts | 233° |
| 2026-05-07 23:26 | 42.21908 | -21.45574 | 37935 ft | 487 kts | 233° |
| 2026-05-07 23:27 | 42.15854 | -21.56573 | 37931 ft | 488 kts | 233° |
| 2026-05-07 23:27 | 42.11796 | -21.63918 | 37937 ft | 489 kts | 233° |
| 2026-05-07 23:28 | 42.07723 | -21.71279 | 37939 ft | 489 kts | 233° |
| 2026-05-07 23:28 | 42.03651 | -21.78613 | 37930 ft | 488 kts | 233° |
| 2026-05-07 23:29 | 41.99585 | -21.85922 | 37935 ft | 488 kts | 233° |
| 2026-05-07 23:29 | 41.95517 | -21.93217 | 37930 ft | 487 kts | 233° |
| 2026-05-07 23:30 | 41.91450 | -22.00493 | 37927 ft | 486 kts | 233° |
| 2026-05-07 23:30 | 41.87408 | -22.07708 | 37928 ft | 487 kts | 233° |
| 2026-05-07 23:31 | 41.83320 | -22.14986 | 37934 ft | 489 kts | 233° |
| 2026-05-07 23:31 | 41.79225 | -22.22256 | 37935 ft | 488 kts | 233° |
| 2026-05-07 23:32 | 41.75130 | -22.29516 | 37934 ft | 487 kts | 233° |
| 2026-05-07 23:32 | 41.71035 | -22.36752 | 37933 ft | 487 kts | 233° |
| 2026-05-07 23:33 | 41.66938 | -22.43981 | 37936 ft | 488 kts | 233° |
| 2026-05-07 23:33 | 41.62819 | -22.51223 | 37936 ft | 489 kts | 233° |
| 2026-05-07 23:34 | 41.58713 | -22.58433 | 37935 ft | 491 kts | 233° |
| 2026-05-07 23:34 | 41.54576 | -22.65675 | 37940 ft | 490 kts | 233° |
| 2026-05-07 23:35 | 41.50442 | -22.72897 | 37930 ft | 489 kts | 233° |
| 2026-05-07 23:35 | 41.46311 | -22.80096 | 37934 ft | 489 kts | 233° |
| 2026-05-07 23:36 | 41.42170 | -22.87295 | 37933 ft | 489 kts | 233° |
| 2026-05-07 23:36 | 41.38028 | -22.94480 | 37933 ft | 489 kts | 233° |
| 2026-05-07 23:37 | 41.33868 | -23.01675 | 37932 ft | 490 kts | 233° |
| 2026-05-07 23:37 | 41.29705 | -23.08865 | 37936 ft | 491 kts | 233° |
| 2026-05-07 23:38 | 41.25556 | -23.16010 | 37933 ft | 492 kts | 232° |
| 2026-05-07 23:38 | 41.21377 | -23.23190 | 37937 ft | 490 kts | 233° |
| 2026-05-07 23:39 | 41.17196 | -23.30358 | 37936 ft | 491 kts | 232° |
| 2026-05-07 23:39 | 41.13006 | -23.37522 | 37937 ft | 491 kts | 232° |
| 2026-05-07 23:40 | 41.08806 | -23.44690 | 37923 ft | 491 kts | 232° |
| 2026-05-07 23:40 | 41.04612 | -23.51826 | 37919 ft | 490 kts | 232° |
| 2026-05-07 23:41 | 41.00429 | -23.58936 | 37914 ft | 488 kts | 232° |
| 2026-05-07 23:41 | 40.96267 | -23.65983 | 37914 ft | 490 kts | 232° |
| 2026-05-07 23:42 | 40.92060 | -23.73097 | 37922 ft | 492 kts | 232° |
| 2026-05-07 23:42 | 40.87837 | -23.80221 | 37924 ft | 492 kts | 232° |
| 2026-05-07 23:43 | 40.83611 | -23.87329 | 37927 ft | 491 kts | 232° |
| 2026-05-07 23:43 | 40.79387 | -23.94422 | 37925 ft | 491 kts | 232° |
| 2026-05-07 23:44 | 40.75166 | -24.01491 | 37921 ft | 490 kts | 232° |
| 2026-05-07 23:44 | 40.70931 | -24.08569 | 37923 ft | 491 kts | 232° |
| 2026-05-07 23:45 | 40.66689 | -24.15642 | 37922 ft | 491 kts | 232° |
| 2026-05-07 23:45 | 40.62447 | -24.22698 | 37925 ft | 491 kts | 232° |
| 2026-05-07 23:46 | 40.58228 | -24.29698 | 37923 ft | 490 kts | 232° |
| 2026-05-07 23:46 | 40.53993 | -24.36714 | 37921 ft | 490 kts | 232° |
| 2026-05-07 23:47 | 40.49752 | -24.43721 | 37920 ft | 489 kts | 232° |
| 2026-05-07 23:47 | 40.45503 | -24.50725 | 37921 ft | 491 kts | 232° |
| 2026-05-07 23:48 | 40.41228 | -24.57757 | 37928 ft | 493 kts | 232° |
| 2026-05-07 23:48 | 40.36945 | -24.64784 | 37921 ft | 493 kts | 232° |
| 2026-05-07 23:49 | 40.32671 | -24.71782 | 37919 ft | 492 kts | 232° |
| 2026-05-07 23:49 | 40.28384 | -24.78785 | 37923 ft | 492 kts | 232° |
| 2026-05-07 23:50 | 40.24120 | -24.85734 | 37923 ft | 492 kts | 232° |
| 2026-05-07 23:50 | 40.19820 | -24.92730 | 37926 ft | 493 kts | 232° |
| 2026-05-07 23:51 | 40.15511 | -24.99722 | 37943 ft | 494 kts | 232° |
| 2026-05-07 23:51 | 40.11186 | -25.06723 | 37943 ft | 495 kts | 232° |
| 2026-05-07 23:52 | 40.06889 | -25.13665 | 37945 ft | 494 kts | 232° |
| 2026-05-07 23:52 | 40.02573 | -25.20621 | 37939 ft | 493 kts | 232° |
| 2026-05-07 23:53 | 39.98251 | -25.27572 | 37930 ft | 492 kts | 232° |
| 2026-05-07 23:53 | 39.93943 | -25.34486 | 37929 ft | 490 kts | 232° |
| 2026-05-07 23:54 | 39.89537 | -25.41208 | 37946 ft | 493 kts | 223° |
| 2026-05-07 23:54 | 39.84154 | -25.46811 | 37932 ft | 497 kts | 219° |
| 2026-05-07 23:55 | 39.78693 | -25.52337 | 37939 ft | 497 kts | 220° |
| 2026-05-07 23:55 | 39.73255 | -25.57880 | 37939 ft | 497 kts | 219° |
| 2026-05-07 23:56 | 39.67795 | -25.63400 | 37934 ft | 497 kts | 219° |
| 2026-05-07 23:56 | 39.62334 | -25.68929 | 37931 ft | 498 kts | 219° |
| 2026-05-07 23:57 | 39.56866 | -25.74445 | 37933 ft | 496 kts | 219° |
| 2026-05-07 23:57 | 39.51454 | -25.79896 | 37934 ft | 495 kts | 219° |
| 2026-05-07 23:58 | 39.46018 | -25.85359 | 37927 ft | 494 kts | 219° |
| 2026-05-07 23:58 | 39.40593 | -25.90802 | 37931 ft | 494 kts | 219° |
| 2026-05-07 23:59 | 39.35136 | -25.96264 | 37932 ft | 495 kts | 219° |
| 2026-05-07 23:59 | 39.29679 | -26.01715 | 37930 ft | 495 kts | 219° |
| 2026-05-08 00:00 | 39.24220 | -26.07158 | 37937 ft | 496 kts | 219° |
| 2026-05-08 00:00 | 39.18783 | -26.12567 | 37938 ft | 496 kts | 220° |
| 2026-05-08 00:01 | 39.13286 | -26.18026 | 37932 ft | 496 kts | 220° |
| 2026-05-08 00:01 | 39.07827 | -26.23435 | 37931 ft | 495 kts | 220° |
| 2026-05-08 00:02 | 39.02402 | -26.28801 | 37937 ft | 494 kts | 220° |
| 2026-05-08 00:02 | 38.96953 | -26.34178 | 37935 ft | 494 kts | 220° |
| 2026-05-08 00:03 | 38.91495 | -26.39556 | 37933 ft | 495 kts | 220° |
| 2026-05-08 00:03 | 38.86021 | -26.44936 | 37936 ft | 496 kts | 220° |
| 2026-05-08 00:04 | 38.80534 | -26.50321 | 37938 ft | 496 kts | 220° |
| 2026-05-08 00:04 | 38.75056 | -26.55682 | 37939 ft | 495 kts | 220° |
| 2026-05-08 00:05 | 38.69585 | -26.61031 | 37945 ft | 494 kts | 220° |
| 2026-05-08 00:05 | 38.64147 | -26.66334 | 37934 ft | 494 kts | 220° |
| 2026-05-08 00:06 | 38.58679 | -26.71657 | 37942 ft | 493 kts | 220° |
| 2026-05-08 00:06 | 38.53215 | -26.76965 | 37935 ft | 493 kts | 220° |
| 2026-05-08 00:07 | 38.47755 | -26.82259 | 37933 ft | 493 kts | 220° |
| 2026-05-08 00:07 | 38.42275 | -26.87563 | 37938 ft | 494 kts | 220° |
| 2026-05-08 00:08 | 38.36796 | -26.92856 | 37941 ft | 495 kts | 220° |
| 2026-05-08 00:08 | 38.31289 | -26.98163 | 37945 ft | 496 kts | 220° |
| 2026-05-08 00:09 | 38.25822 | -27.03422 | 37942 ft | 496 kts | 220° |
| 2026-05-08 00:09 | 38.20315 | -27.08712 | 37942 ft | 495 kts | 220° |
| 2026-05-08 00:10 | 38.14808 | -27.13987 | 37941 ft | 495 kts | 220° |
| 2026-05-08 00:10 | 38.09318 | -27.19240 | 37938 ft | 493 kts | 220° |
| 2026-05-08 00:11 | 38.03832 | -27.24474 | 37936 ft | 493 kts | 220° |
| 2026-05-08 00:11 | 37.98341 | -27.29710 | 37938 ft | 494 kts | 220° |
| 2026-05-08 00:12 | 37.92887 | -27.34894 | 37939 ft | 492 kts | 220° |
| 2026-05-08 00:12 | 37.87423 | -27.40083 | 37941 ft | 491 kts | 220° |
| 2026-05-08 00:13 | 37.81952 | -27.45264 | 37932 ft | 492 kts | 220° |
| 2026-05-08 00:13 | 37.77368 | -27.49602 | 37922 ft | 498 kts | 220° |
| 2026-05-08 00:14 | 37.71813 | -27.54843 | 37928 ft | 497 kts | 220° |
| 2026-05-08 00:14 | 37.66278 | -27.60060 | 37923 ft | 496 kts | 220° |
| 2026-05-08 00:15 | 37.60747 | -27.65262 | 37922 ft | 495 kts | 220° |
| 2026-05-08 00:15 | 37.55226 | -27.70443 | 37921 ft | 495 kts | 220° |
| 2026-05-08 00:16 | 37.49700 | -27.75622 | 37922 ft | 495 kts | 220° |
| 2026-05-08 00:16 | 37.44167 | -27.80795 | 37924 ft | 495 kts | 220° |
| 2026-05-08 00:17 | 37.38674 | -27.85923 | 37923 ft | 494 kts | 220° |
| 2026-05-08 00:17 | 37.33151 | -27.91069 | 37922 ft | 494 kts | 220° |
| 2026-05-08 00:18 | 37.27619 | -27.96213 | 37925 ft | 495 kts | 220° |
| 2026-05-08 00:18 | 37.22081 | -28.01352 | 37926 ft | 495 kts | 220° |
| 2026-05-08 00:19 | 37.16555 | -28.06472 | 37925 ft | 493 kts | 220° |
| 2026-05-08 00:19 | 37.11041 | -28.11571 | 37923 ft | 492 kts | 220° |
| 2026-05-08 00:20 | 37.05541 | -28.16648 | 37923 ft | 491 kts | 220° |
| 2026-05-08 00:20 | 37.00073 | -28.21687 | 37926 ft | 491 kts | 220° |
| 2026-05-08 00:21 | 36.94570 | -28.26746 | 37940 ft | 490 kts | 220° |
| 2026-05-08 00:21 | 36.89063 | -28.31801 | 37944 ft | 490 kts | 220° |
| 2026-05-08 00:22 | 36.83571 | -28.36833 | 37940 ft | 489 kts | 220° |
| 2026-05-08 00:22 | 36.78069 | -28.41868 | 37943 ft | 490 kts | 220° |
| 2026-05-08 00:23 | 36.72558 | -28.46896 | 37939 ft | 490 kts | 221° |
| 2026-05-08 00:23 | 36.67052 | -28.51914 | 37947 ft | 490 kts | 221° |